N306ER KSAN-
Flight info
| Callsign | N306ER |
|---|---|
| Flight time | N/A |
| Altitude | VFR/030 |
| Route | VFR W |
| Aircraft |
Departure
| Time | 2026-04-20 01:15 |
|---|---|
| Airport | San Diego International Airport (KSAN) |
Arrival
| Time | N/A |
|---|---|
| Airport | - |
| Time | Latitude | Longitude | Altitude | Speed | Heading |
|---|---|---|---|---|---|
| 2026-04-20 01:07 | 32.73425 | -117.17893 | 17 ft | 0 kts | 330° |
| 2026-04-20 01:12 | 32.73429 | -117.17897 | 17 ft | 3 kts | 316° |
| 2026-04-20 01:12 | 32.73430 | -117.17914 | 18 ft | 2 kts | 219° |
| 2026-04-20 01:12 | 32.73392 | -117.17935 | 18 ft | 9 kts | 205° |
| 2026-04-20 01:12 | 32.73328 | -117.17961 | 18 ft | 10 kts | 196° |
| 2026-04-20 01:13 | 32.73246 | -117.17980 | 18 ft | 15 kts | 158° |
| 2026-04-20 01:13 | 32.73200 | -117.17857 | 18 ft | 17 kts | 104° |
| 2026-04-20 01:13 | 32.73169 | -117.17723 | 18 ft | 17 kts | 106° |
| 2026-04-20 01:13 | 32.73133 | -117.17593 | 18 ft | 16 kts | 127° |
| 2026-04-20 01:14 | 32.73096 | -117.17554 | 18 ft | 0 kts | 139° |
| 2026-04-20 01:14 | 32.73026 | -117.17534 | 18 ft | 18 kts | 208° |
| 2026-04-20 01:14 | 32.73040 | -117.17661 | 18 ft | 40 kts | 285° |
| 2026-04-20 01:15 | 32.73171 | -117.18198 | 41 ft | 88 kts | 289° |
| 2026-04-20 01:15 | 32.73372 | -117.18944 | 277 ft | 100 kts | 282° |
| 2026-04-20 01:15 | 32.73549 | -117.19774 | 572 ft | 108 kts | 294° |
| 2026-04-20 01:15 | 32.74075 | -117.20414 | 922 ft | 113 kts | 321° |
| 2026-04-20 01:16 | 32.74713 | -117.20993 | 1254 ft | 117 kts | 320° |
| 2026-04-20 01:16 | 32.75350 | -117.21620 | 1569 ft | 120 kts | 316° |
| 2026-04-20 01:16 | 32.76017 | -117.22200 | 1938 ft | 121 kts | 323° |
| 2026-04-20 01:16 | 32.76708 | -117.22796 | 2270 ft | 125 kts | 322° |
| 2026-04-20 01:17 | 32.77443 | -117.23367 | 2590 ft | 129 kts | 340° |
| 2026-04-20 01:17 | 32.78309 | -117.23656 | 2926 ft | 130 kts | 345° |
| 2026-04-20 01:17 | 32.79260 | -117.23937 | 3002 ft | 153 kts | 346° |
| 2026-04-20 01:17 | 32.80353 | -117.24260 | 3004 ft | 169 kts | 346° |
| 2026-04-20 01:18 | 32.81519 | -117.24606 | 3000 ft | 171 kts | 346° |
| 2026-04-20 01:18 | 32.82631 | -117.24931 | 2999 ft | 159 kts | 346° |
| 2026-04-20 01:18 | 32.83667 | -117.25231 | 2992 ft | 147 kts | 346° |
| 2026-04-20 01:18 | 32.84626 | -117.25505 | 2984 ft | 137 kts | 345° |
| 2026-04-20 01:19 | 32.85528 | -117.25765 | 3004 ft | 132 kts | 346° |
| 2026-04-20 01:19 | 32.86415 | -117.26027 | 2996 ft | 131 kts | 346° |
| 2026-04-20 01:19 | 32.87289 | -117.26282 | 2995 ft | 128 kts | 346° |
| 2026-04-20 01:19 | 32.88146 | -117.26531 | 2982 ft | 125 kts | 346° |
| 2026-04-20 01:20 | 32.88979 | -117.26773 | 2984 ft | 122 kts | 346° |
| 2026-04-20 01:20 | 32.89794 | -117.27006 | 2992 ft | 120 kts | 346° |
| 2026-04-20 01:20 | 32.90599 | -117.27242 | 2988 ft | 118 kts | 346° |
| 2026-04-20 01:20 | 32.91395 | -117.27475 | 2989 ft | 117 kts | 346° |
| 2026-04-20 01:21 | 32.92187 | -117.27707 | 2986 ft | 118 kts | 346° |
| 2026-04-20 01:21 | 32.92979 | -117.27940 | 2982 ft | 117 kts | 346° |
| 2026-04-20 01:21 | 32.93772 | -117.28167 | 2987 ft | 117 kts | 347° |
| 2026-04-20 01:21 | 32.94568 | -117.28396 | 2975 ft | 117 kts | 346° |
| 2026-04-20 01:22 | 32.95357 | -117.28623 | 2986 ft | 117 kts | 346° |
| 2026-04-20 01:22 | 32.96152 | -117.28852 | 2977 ft | 118 kts | 346° |
| 2026-04-20 01:22 | 32.96949 | -117.29089 | 2981 ft | 118 kts | 346° |
| 2026-04-20 01:22 | 32.97745 | -117.29324 | 2984 ft | 119 kts | 346° |
| 2026-04-20 01:23 | 32.98533 | -117.29561 | 2980 ft | 118 kts | 346° |
| 2026-04-20 01:23 | 32.99328 | -117.29800 | 2980 ft | 117 kts | 346° |
| 2026-04-20 01:23 | 33.00121 | -117.30031 | 2979 ft | 117 kts | 346° |
| 2026-04-20 01:23 | 33.00917 | -117.30262 | 2978 ft | 116 kts | 346° |
| 2026-04-20 01:24 | 33.01701 | -117.30488 | 2983 ft | 116 kts | 346° |
| 2026-04-20 01:24 | 33.02490 | -117.30717 | 2985 ft | 117 kts | 346° |
| 2026-04-20 01:24 | 33.03276 | -117.30953 | 2981 ft | 119 kts | 346° |
| 2026-04-20 01:24 | 33.04079 | -117.31191 | 2985 ft | 119 kts | 346° |
| 2026-04-20 01:25 | 33.04884 | -117.31430 | 2985 ft | 118 kts | 346° |
| 2026-04-20 01:25 | 33.05678 | -117.31664 | 2981 ft | 117 kts | 346° |
| 2026-04-20 01:25 | 33.06468 | -117.31894 | 2980 ft | 117 kts | 346° |
| 2026-04-20 01:25 | 33.07257 | -117.32123 | 2981 ft | 116 kts | 346° |
| 2026-04-20 01:26 | 33.08046 | -117.32356 | 2986 ft | 118 kts | 347° |
| 2026-04-20 01:26 | 33.08840 | -117.32592 | 2981 ft | 118 kts | 346° |
| 2026-04-20 01:26 | 33.09632 | -117.32827 | 2981 ft | 117 kts | 346° |
| 2026-04-20 01:26 | 33.10426 | -117.33058 | 2979 ft | 118 kts | 346° |
| 2026-04-20 01:27 | 33.11220 | -117.33284 | 2977 ft | 117 kts | 345° |
| 2026-04-20 01:27 | 33.12003 | -117.33546 | 2975 ft | 117 kts | 330° |
| 2026-04-20 01:27 | 33.12516 | -117.34255 | 2976 ft | 112 kts | 283° |
| 2026-04-20 01:27 | 33.12471 | -117.35133 | 2983 ft | 106 kts | 238° |
| 2026-04-20 01:28 | 33.11933 | -117.35665 | 2988 ft | 101 kts | 193° |
| 2026-04-20 01:28 | 33.11259 | -117.35544 | 2985 ft | 102 kts | 148° |
| 2026-04-20 01:28 | 33.10869 | -117.34852 | 2992 ft | 105 kts | 104° |
| 2026-04-20 01:28 | 33.11017 | -117.33992 | 2990 ft | 111 kts | 59° |
| 2026-04-20 01:29 | 33.11642 | -117.33472 | 2988 ft | 114 kts | 14° |
| 2026-04-20 01:29 | 33.12413 | -117.33584 | 2983 ft | 114 kts | 329° |
| 2026-04-20 01:29 | 33.12917 | -117.34271 | 2984 ft | 110 kts | 285° |
| 2026-04-20 01:29 | 33.12887 | -117.35137 | 2992 ft | 104 kts | 240° |
| 2026-04-20 01:30 | 33.12370 | -117.35682 | 2987 ft | 100 kts | 195° |
| 2026-04-20 01:30 | 33.11704 | -117.35593 | 2988 ft | 99 kts | 150° |
| 2026-04-20 01:30 | 33.11316 | -117.34923 | 2981 ft | 104 kts | 104° |
| 2026-04-20 01:30 | 33.11455 | -117.34079 | 2984 ft | 108 kts | 59° |
| 2026-04-20 01:31 | 33.12064 | -117.33567 | 2991 ft | 111 kts | 14° |
| 2026-04-20 01:31 | 33.12834 | -117.33623 | 2987 ft | 113 kts | 342° |
| 2026-04-20 01:31 | 33.13438 | -117.34176 | 2990 ft | 110 kts | 297° |
| 2026-04-20 01:31 | 33.13550 | -117.35033 | 2989 ft | 104 kts | 251° |
| 2026-04-20 01:32 | 33.13141 | -117.35691 | 2990 ft | 100 kts | 207° |
| 2026-04-20 01:32 | 33.12472 | -117.35775 | 2988 ft | 100 kts | 161° |
| 2026-04-20 01:32 | 33.11785 | -117.35794 | 2944 ft | 102 kts | 203° |
| 2026-04-20 01:32 | 33.11352 | -117.36458 | 2943 ft | 105 kts | 239° |
| 2026-04-20 01:33 | 33.11031 | -117.37219 | 2955 ft | 103 kts | 238° |
| 2026-04-20 01:33 | 33.10691 | -117.37972 | 2935 ft | 103 kts | 236° |
| 2026-04-20 01:33 | 33.10485 | -117.38798 | 2880 ft | 112 kts | 276° |
| 2026-04-20 01:33 | 33.10920 | -117.39560 | 2849 ft | 118 kts | 326° |
| 2026-04-20 01:34 | 33.11701 | -117.39714 | 2858 ft | 115 kts | 16° |
| 2026-04-20 01:34 | 33.12404 | -117.39305 | 2858 ft | 113 kts | 27° |
| 2026-04-20 01:34 | 33.13151 | -117.38988 | 2799 ft | 117 kts | 19° |
| 2026-04-20 01:34 | 33.13909 | -117.38599 | 2728 ft | 119 kts | 26° |
| 2026-04-20 01:35 | 33.14676 | -117.38197 | 2632 ft | 123 kts | 25° |
| 2026-04-20 01:35 | 33.15478 | -117.37776 | 2477 ft | 129 kts | 22° |
| 2026-04-20 01:35 | 33.16314 | -117.37375 | 2354 ft | 130 kts | 22° |
| 2026-04-20 01:35 | 33.17147 | -117.36985 | 2253 ft | 129 kts | 20° |
| 2026-04-20 01:36 | 33.18001 | -117.36641 | 2112 ft | 132 kts | 17° |
| 2026-04-20 01:36 | 33.18911 | -117.36302 | 1821 ft | 140 kts | 16° |
| 2026-04-20 01:36 | 33.19841 | -117.35987 | 1597 ft | 137 kts | 19° |
| 2026-04-20 01:36 | 33.20467 | -117.35306 | 1492 ft | 108 kts | 64° |
| 2026-04-20 01:37 | 33.20726 | -117.34513 | 1322 ft | 101 kts | 73° |
| 2026-04-20 01:37 | 33.20896 | -117.33683 | 1147 ft | 101 kts | 81° |
| 2026-04-20 01:37 | 33.21029 | -117.32901 | 1015 ft | 95 kts | 70° |
| 2026-04-20 01:37 | 33.21548 | -117.32559 | 914 ft | 97 kts | 352° |
| 2026-04-20 01:38 | 33.22070 | -117.32987 | 819 ft | 98 kts | 290° |
| 2026-04-20 01:38 | 33.22026 | -117.33750 | 643 ft | 90 kts | 256° |
| 2026-04-20 01:38 | 33.21900 | -117.34506 | 198 ft | 88 kts | 259° |
| 2026-04-20 01:38 | 33.21808 | -117.35107 | 35 ft | 53 kts | 259° |
| 2026-04-20 01:39 | 33.21726 | -117.35651 | 130 ft | 76 kts | 258° |
| 2026-04-20 01:39 | 33.21555 | -117.36281 | 410 ft | 85 kts | 250° |
| 2026-04-20 01:39 | 33.21076 | -117.36623 | 722 ft | 101 kts | 174° |
| 2026-04-20 01:39 | 33.20485 | -117.36247 | 1046 ft | 100 kts | 120° |
| 2026-04-20 01:40 | 33.20713 | -117.35471 | 1100 ft | 104 kts | 60° |
| 2026-04-20 01:40 | 33.20881 | -117.34615 | 1202 ft | 106 kts | 80° |
| 2026-04-20 01:40 | 33.20957 | -117.33729 | 1265 ft | 109 kts | 88° |
| 2026-04-20 01:40 | 33.20976 | -117.32837 | 1238 ft | 108 kts | 88° |
| 2026-04-20 01:41 | 33.21361 | -117.32093 | 1123 ft | 111 kts | 24° |
| 2026-04-20 01:41 | 33.22041 | -117.32268 | 1029 ft | 106 kts | 307° |
| 2026-04-20 01:41 | 33.22137 | -117.32841 | 818 ft | 110 kts | 264° |
| 2026-04-20 01:41 | 33.22038 | -117.33635 | 466 ft | 84 kts | 259° |
| 2026-04-20 01:42 | 33.21929 | -117.34306 | 185 ft | 77 kts | 260° |
| 2026-04-20 01:42 | 33.21842 | -117.34864 | 33 ft | 57 kts | 261° |
| 2026-04-20 01:42 | 33.21766 | -117.35373 | 57 ft | 78 kts | 259° |
| 2026-04-20 01:42 | 33.21671 | -117.36064 | 313 ft | 89 kts | 262° |
| 2026-04-20 01:43 | 33.21593 | -117.36788 | 731 ft | 87 kts | 262° |
| 2026-04-20 01:43 | 33.21505 | -117.37525 | 1045 ft | 99 kts | 262° |
| 2026-04-20 01:43 | 33.21405 | -117.38406 | 1214 ft | 116 kts | 262° |
| 2026-04-20 01:43 | 33.21294 | -117.39427 | 1383 ft | 132 kts | 262° |
| 2026-04-20 01:44 | 33.21317 | -117.40554 | 1532 ft | 143 kts | 290° |
| 2026-04-20 01:44 | 33.21911 | -117.41526 | 1697 ft | 149 kts | 316° |
| 2026-04-20 01:44 | 33.22731 | -117.42314 | 1848 ft | 153 kts | 320° |
| 2026-04-20 01:44 | 33.23586 | -117.43093 | 1994 ft | 155 kts | 321° |
| 2026-04-20 01:45 | 33.24448 | -117.43878 | 2145 ft | 156 kts | 321° |
| 2026-04-20 01:45 | 33.25317 | -117.44676 | 2296 ft | 158 kts | 321° |
| 2026-04-20 01:45 | 33.26150 | -117.45441 | 2440 ft | 141 kts | 321° |
| 2026-04-20 01:45 | 33.26887 | -117.46106 | 2579 ft | 125 kts | 321° |
| 2026-04-20 01:46 | 33.27554 | -117.46710 | 2713 ft | 116 kts | 321° |
| 2026-04-20 01:46 | 33.28178 | -117.47271 | 2852 ft | 108 kts | 321° |
| 2026-04-20 01:46 | 33.28762 | -117.47805 | 2986 ft | 104 kts | 321° |
| 2026-04-20 01:46 | 33.29352 | -117.48352 | 3007 ft | 110 kts | 321° |
| 2026-04-20 01:47 | 33.29973 | -117.48931 | 3010 ft | 116 kts | 321° |
| 2026-04-20 01:47 | 33.30627 | -117.49540 | 3011 ft | 121 kts | 321° |
| 2026-04-20 01:47 | 33.31309 | -117.50170 | 3006 ft | 125 kts | 321° |
| 2026-04-20 01:47 | 33.32001 | -117.50810 | 3007 ft | 126 kts | 321° |
| 2026-04-20 01:48 | 33.32701 | -117.51446 | 3009 ft | 127 kts | 321° |
| 2026-04-20 01:48 | 33.33405 | -117.52093 | 3006 ft | 128 kts | 321° |
| 2026-04-20 01:48 | 33.34108 | -117.52737 | 3008 ft | 130 kts | 322° |
| 2026-04-20 01:48 | 33.34839 | -117.53407 | 3002 ft | 132 kts | 321° |
| 2026-04-20 01:49 | 33.35556 | -117.54073 | 3000 ft | 132 kts | 313° |
| 2026-04-20 01:49 | 33.35915 | -117.55039 | 2997 ft | 127 kts | 268° |
| 2026-04-20 01:49 | 33.35609 | -117.55982 | 2996 ft | 122 kts | 221° |
| 2026-04-20 01:49 | 33.34857 | -117.56342 | 2998 ft | 118 kts | 176° |
| 2026-04-20 01:50 | 33.34149 | -117.55916 | 2993 ft | 118 kts | 131° |
| 2026-04-20 01:50 | 33.33944 | -117.54980 | 2992 ft | 122 kts | 84° |
| 2026-04-20 01:50 | 33.34377 | -117.54110 | 3002 ft | 128 kts | 39° |
| 2026-04-20 01:50 | 33.35224 | -117.53821 | 3003 ft | 131 kts | 354° |
| 2026-04-20 01:51 | 33.36043 | -117.54260 | 3013 ft | 131 kts | 323° |
| 2026-04-20 01:51 | 33.36770 | -117.54946 | 3000 ft | 135 kts | 310° |
| 2026-04-20 01:51 | 33.37086 | -117.55965 | 3004 ft | 133 kts | 265° |
| 2026-04-20 01:51 | 33.36725 | -117.56919 | 2999 ft | 125 kts | 218° |
| 2026-04-20 01:52 | 33.35948 | -117.57233 | 3004 ft | 119 kts | 173° |
| 2026-04-20 01:52 | 33.35243 | -117.56757 | 3002 ft | 121 kts | 128° |
| 2026-04-20 01:52 | 33.35054 | -117.55791 | 3003 ft | 126 kts | 84° |
| 2026-04-20 01:52 | 33.35517 | -117.54906 | 3004 ft | 132 kts | 39° |
| 2026-04-20 01:53 | 33.36389 | -117.54630 | 3005 ft | 133 kts | 353° |
| 2026-04-20 01:53 | 33.37226 | -117.55104 | 3007 ft | 135 kts | 321° |
| 2026-04-20 01:53 | 33.37694 | -117.56024 | 2993 ft | 128 kts | 275° |
| 2026-04-20 01:53 | 33.37504 | -117.57008 | 3007 ft | 121 kts | 230° |
| 2026-04-20 01:54 | 33.36807 | -117.57502 | 3009 ft | 118 kts | 185° |
| 2026-04-20 01:54 | 33.36034 | -117.57241 | 3008 ft | 118 kts | 156° |
| 2026-04-20 01:54 | 33.35214 | -117.57263 | 2940 ft | 123 kts | 200° |
| 2026-04-20 01:54 | 33.34557 | -117.57883 | 2991 ft | 118 kts | 208° |
| 2026-04-20 01:55 | 33.33775 | -117.57985 | 2996 ft | 116 kts | 160° |
| 2026-04-20 01:55 | 33.33195 | -117.57348 | 3003 ft | 118 kts | 115° |
| 2026-04-20 01:55 | 33.33191 | -117.56377 | 3003 ft | 122 kts | 70° |
| 2026-04-20 01:55 | 33.33793 | -117.55656 | 3000 ft | 128 kts | 25° |
| 2026-04-20 01:56 | 33.34672 | -117.55617 | 3005 ft | 130 kts | 339° |
| 2026-04-20 01:56 | 33.35465 | -117.56133 | 3004 ft | 131 kts | 327° |
| 2026-04-20 01:56 | 33.36201 | -117.56777 | 3005 ft | 132 kts | 319° |
| 2026-04-20 01:56 | 33.36901 | -117.57480 | 3004 ft | 132 kts | 317° |
| 2026-04-20 01:57 | 33.37600 | -117.58189 | 3001 ft | 132 kts | 318° |
| 2026-04-20 01:57 | 33.38301 | -117.58903 | 3004 ft | 133 kts | 319° |
| 2026-04-20 01:57 | 33.39008 | -117.59628 | 3003 ft | 134 kts | 318° |
| 2026-04-20 01:57 | 33.39709 | -117.60351 | 3001 ft | 132 kts | 319° |
| 2026-04-20 01:58 | 33.40403 | -117.61069 | 2997 ft | 131 kts | 318° |
| 2026-04-20 01:58 | 33.41088 | -117.61777 | 2994 ft | 130 kts | 318° |
| 2026-04-20 01:58 | 33.41771 | -117.62482 | 2989 ft | 129 kts | 318° |
| 2026-04-20 01:58 | 33.42455 | -117.63175 | 2989 ft | 129 kts | 319° |
| 2026-04-20 01:59 | 33.43134 | -117.63868 | 2991 ft | 128 kts | 318° |
| 2026-04-20 01:59 | 33.43817 | -117.64559 | 2995 ft | 129 kts | 319° |
| 2026-04-20 01:59 | 33.44499 | -117.65260 | 2994 ft | 130 kts | 318° |
| 2026-04-20 01:59 | 33.45190 | -117.65967 | 2996 ft | 132 kts | 318° |
| 2026-04-20 02:00 | 33.45891 | -117.66685 | 2995 ft | 133 kts | 318° |
| 2026-04-20 02:00 | 33.46603 | -117.67412 | 2995 ft | 135 kts | 318° |
| 2026-04-20 02:00 | 33.47311 | -117.68142 | 2992 ft | 134 kts | 317° |
| 2026-04-20 02:00 | 33.48018 | -117.68872 | 2994 ft | 134 kts | 318° |
| 2026-04-20 02:01 | 33.48714 | -117.69599 | 2992 ft | 132 kts | 318° |
| 2026-04-20 02:01 | 33.49406 | -117.70315 | 2993 ft | 131 kts | 318° |
| 2026-04-20 02:01 | 33.50098 | -117.71029 | 2986 ft | 131 kts | 318° |
| 2026-04-20 02:01 | 33.50790 | -117.71735 | 2989 ft | 131 kts | 318° |
| 2026-04-20 02:02 | 33.51361 | -117.72551 | 2989 ft | 129 kts | 302° |
| 2026-04-20 02:02 | 33.51858 | -117.73458 | 2987 ft | 126 kts | 301° |
| 2026-04-20 02:02 | 33.52324 | -117.74321 | 2983 ft | 124 kts | 301° |
| 2026-04-20 02:02 | 33.52792 | -117.75172 | 2993 ft | 122 kts | 300° |
| 2026-04-20 02:03 | 33.53280 | -117.76044 | 2994 ft | 126 kts | 302° |
| 2026-04-20 02:03 | 33.53759 | -117.76922 | 2992 ft | 125 kts | 301° |
| 2026-04-20 02:03 | 33.54237 | -117.77800 | 2992 ft | 126 kts | 301° |
| 2026-04-20 02:03 | 33.54719 | -117.78679 | 2996 ft | 127 kts | 301° |
| 2026-04-20 02:04 | 33.55205 | -117.79573 | 3000 ft | 128 kts | 302° |
| 2026-04-20 02:04 | 33.55691 | -117.80476 | 2997 ft | 129 kts | 301° |
| 2026-04-20 02:04 | 33.56238 | -117.81334 | 2989 ft | 131 kts | 315° |
| 2026-04-20 02:04 | 33.57002 | -117.81946 | 2952 ft | 134 kts | 331° |
| 2026-04-20 02:05 | 33.57835 | -117.82440 | 2926 ft | 135 kts | 337° |
| 2026-04-20 02:05 | 33.58725 | -117.82842 | 2866 ft | 137 kts | 338° |
| 2026-04-20 02:05 | 33.59586 | -117.83338 | 2806 ft | 139 kts | 333° |
| 2026-04-20 02:05 | 33.60451 | -117.83846 | 2723 ft | 140 kts | 335° |
| 2026-04-20 02:06 | 33.61351 | -117.84288 | 2625 ft | 140 kts | 338° |
| 2026-04-20 02:06 | 33.62266 | -117.84730 | 2456 ft | 144 kts | 338° |
| 2026-04-20 02:06 | 33.63208 | -117.85151 | 2281 ft | 144 kts | 341° |
| 2026-04-20 02:06 | 33.64113 | -117.85554 | 2203 ft | 137 kts | 338° |
| 2026-04-20 02:07 | 33.64993 | -117.85940 | 1864 ft | 129 kts | 347° |
| 2026-04-20 02:07 | 33.65826 | -117.85819 | 1540 ft | 117 kts | 20° |
| 2026-04-20 02:07 | 33.66515 | -117.85390 | 1324 ft | 109 kts | 26° |
| 2026-04-20 02:07 | 33.67198 | -117.84926 | 1208 ft | 118 kts | 30° |
| 2026-04-20 02:08 | 33.67902 | -117.84386 | 1144 ft | 122 kts | 31° |
| 2026-04-20 02:08 | 33.68603 | -117.83802 | 1102 ft | 122 kts | 34° |
| 2026-04-20 02:08 | 33.69279 | -117.83218 | 1105 ft | 117 kts | 32° |
| 2026-04-20 02:08 | 33.69936 | -117.82652 | 1102 ft | 116 kts | 34° |
| 2026-04-20 02:09 | 33.70673 | -117.82530 | 1143 ft | 103 kts | 328° |
| 2026-04-20 02:09 | 33.70948 | -117.83198 | 1111 ft | 97 kts | 255° |
| 2026-04-20 02:09 | 33.70661 | -117.83983 | 954 ft | 101 kts | 244° |
| 2026-04-20 02:09 | 33.70329 | -117.84658 | 882 ft | 90 kts | 230° |
| 2026-04-20 02:10 | 33.69861 | -117.85175 | 713 ft | 94 kts | 218° |
| 2026-04-20 02:10 | 33.69349 | -117.85564 | 513 ft | 84 kts | 212° |
| 2026-04-20 02:10 | 33.68851 | -117.85881 | 332 ft | 79 kts | 209° |
| 2026-04-20 02:10 | 33.68375 | -117.86190 | 159 ft | 77 kts | 206° |
| 2026-04-20 02:11 | 33.67938 | -117.86465 | 54 ft | 61 kts | 209° |
| 2026-04-20 02:11 | 33.67659 | -117.86645 | 58 ft | 32 kts | 210° |
| 2026-04-20 02:11 | 33.67417 | -117.86797 | 62 ft | 61 kts | 208° |
| 2026-04-20 02:11 | 33.66961 | -117.87064 | 219 ft | 79 kts | 207° |
| 2026-04-20 02:12 | 33.66483 | -117.87427 | 466 ft | 87 kts | 217° |
| 2026-04-20 02:12 | 33.65923 | -117.87517 | 722 ft | 99 kts | 146° |
| 2026-04-20 02:12 | 33.65876 | -117.86726 | 1014 ft | 105 kts | 55° |
| 2026-04-20 02:12 | 33.66462 | -117.86110 | 1108 ft | 111 kts | 32° |
| 2026-04-20 02:13 | 33.67086 | -117.85592 | 1061 ft | 108 kts | 31° |
| 2026-04-20 02:13 | 33.67676 | -117.85092 | 1071 ft | 101 kts | 32° |
| 2026-04-20 02:13 | 33.68254 | -117.84617 | 1118 ft | 101 kts | 30° |
| 2026-04-20 02:13 | 33.68871 | -117.84194 | 1152 ft | 100 kts | 9° |
| 2026-04-20 02:14 | 33.69413 | -117.84486 | 1092 ft | 88 kts | 298° |
| 2026-04-20 02:14 | 33.69517 | -117.85197 | 828 ft | 89 kts | 247° |
| 2026-04-20 02:14 | 33.69072 | -117.85727 | 559 ft | 87 kts | 213° |
| 2026-04-20 02:14 | 33.68569 | -117.86064 | 277 ft | 81 kts | 211° |
| 2026-04-20 02:15 | 33.68072 | -117.86379 | 88 ft | 79 kts | 208° |
| 2026-04-20 02:15 | 33.67630 | -117.86662 | 83 ft | 70 kts | 209° |
| 2026-04-20 02:15 | 33.67128 | -117.86905 | 298 ft | 85 kts | 181° |
| 2026-04-20 02:15 | 33.66688 | -117.86404 | 527 ft | 99 kts | 127° |
| 2026-04-20 02:16 | 33.66493 | -117.85679 | 800 ft | 101 kts | 73° |
| 2026-04-20 02:16 | 33.66998 | -117.85085 | 854 ft | 104 kts | 36° |
| 2026-04-20 02:16 | 33.67565 | -117.84609 | 1005 ft | 97 kts | 31° |
| 2026-04-20 02:16 | 33.68151 | -117.84157 | 1110 ft | 102 kts | 29° |
| 2026-04-20 02:17 | 33.68775 | -117.83655 | 1071 ft | 112 kts | 32° |
| 2026-04-20 02:17 | 33.69495 | -117.83319 | 1024 ft | 111 kts | 352° |
| 2026-04-20 02:17 | 33.70065 | -117.83852 | 998 ft | 107 kts | 301° |
| 2026-04-20 02:17 | 33.70152 | -117.84705 | 851 ft | 110 kts | 247° |
| 2026-04-20 02:18 | 33.69640 | -117.85351 | 612 ft | 107 kts | 216° |
| 2026-04-20 02:18 | 33.69051 | -117.85768 | 408 ft | 85 kts | 211° |
| 2026-04-20 02:18 | 33.68556 | -117.86079 | 210 ft | 80 kts | 208° |
| 2026-04-20 02:18 | 33.68072 | -117.86382 | 72 ft | 75 kts | 209° |
| 2026-04-20 02:19 | 33.67696 | -117.86621 | 56 ft | 67 kts | 208° |
| 2026-04-20 02:19 | 33.67240 | -117.86908 | 241 ft | 74 kts | 207° |
| 2026-04-20 02:19 | 33.66765 | -117.87115 | 444 ft | 79 kts | 173° |
| 2026-04-20 02:19 | 33.66309 | -117.86640 | 577 ft | 92 kts | 131° |
| 2026-04-20 02:20 | 33.66508 | -117.85970 | 691 ft | 100 kts | 44° |
| 2026-04-20 02:20 | 33.67037 | -117.85333 | 915 ft | 108 kts | 43° |
| 2026-04-20 02:20 | 33.67614 | -117.84769 | 1007 ft | 108 kts | 31° |
| 2026-04-20 02:20 | 33.68260 | -117.84252 | 1074 ft | 114 kts | 28° |
| 2026-04-20 02:21 | 33.69544 | -117.84400 | 1030 ft | 96 kts | 290° |
| 2026-04-20 02:21 | 33.69579 | -117.85091 | 692 ft | 78 kts | 257° |
| 2026-04-20 02:21 | 33.69293 | -117.85669 | 436 ft | 85 kts | 225° |
| 2026-04-20 02:22 | 33.68822 | -117.86087 | 285 ft | 83 kts | 210° |
| 2026-04-20 02:22 | 33.68330 | -117.86403 | 122 ft | 77 kts | 208° |
| 2026-04-20 02:22 | 33.68020 | -117.86597 | 62 ft | 73 kts | 208° |
| 2026-04-20 02:22 | 33.67687 | -117.86816 | 55 ft | 34 kts | 210° |
| 2026-04-20 02:23 | 33.67583 | -117.86937 | 57 ft | 14 kts | 278° |
| 2026-04-20 02:23 | 33.67597 | -117.87050 | 54 ft | 14 kts | 268° |
| 2026-04-20 02:23 | 33.67606 | -117.87148 | 52 ft | 0 kts | 283° |